Lillington, NC (27546)

9:43 AM EDT on August 18, 2017 (GMT -0400)
Harnett County Emergency Services | | Change Station
Active Advisory: Heat Advisory

Elev 187 ft 35.39 °N, 78.80 °W | Updated 20 seconds ago

Partly Cloudy
Partly Cloudy
82.8 °F
Feels Like 89 °F
N
0.0
Wind Variable Wind from SE
Gusts 0.0 mph

Today
High -- | Low -- °F
--% Chance of Precip.
Yesterday
High -- | Low -- °F
Precip. -- in
Pressure 29.95 in
Visibility 7.0 miles
Clouds Overcast 300 ft
Heat Index 89 °F
Dew Point 73 °F
Humidity 73%
Rainfall 0.00 in
Snow Depth Not available.
6:37 AM 8:00 PM
Waning Crescent, 13% visible
METAR KHRJ 181325Z AUTO 00000KT 7SM OVC003 26/26 A2995 RMK AO2 T02580258
Pressure 29.95 in
Visibility 7.0 miles
Clouds Overcast 300 ft
Heat Index 89 °F
Dew Point 73 °F
Humidity 73%
Rainfall 0.00 in
Snow Depth Not available.
6:37 AM 8:00 PM
Waning Crescent, 13% visible
METAR KHRJ 181325Z AUTO 00000KT 7SM OVC003 26/26 A2995 RMK AO2 T02580258

Get Your Daily Forecast Email!

Thanks for signing up!

Be on the lookout for a verification email in your inbox.

You'll start receiving severe weather alerts in your inbox..

×

10-Day Weather Forecast

Almanac

Astronomy

Aug. 18, 2017 Rise Set
Actual Time
Civil Twilight
Nautical Twilight
Astronomical Twilight
Moon
Length of Visible Light
Length of Day
Tomorrow will be .
, % of the Moon is Illuminated

Today's Extremes

State Highs State Lows

Community

WunderPhotos

Category 6

Welcome to Category 6. This is the collective home for Weather Underground's featured writeups by Dr. Jeff Masters (right), Bob Henson (left), Chris Burt, and other regular contributors.

Nearby

Air Quality

  Air Quality AQ Index Pollutant
Not available.

Snow Depth

Station Depth Elevation

Earthquake Activity

City Distance Mag. Time & Date
Minimum magnitude displayed is 2.5.

Coastal Water Temperatures

Place Temperature

Stations

Nearby Weather Stations

Station Location Temp. Windchill Dew Point Humidity Wind Precip. Elev Updated Type
                   

Watches & Warnings

Heat Advisory
Issued: 3:49 AM EDT Aug. 18, 2017 – National Weather Service

... Heat advisory in effect from noon today to 6 PM EDT this
evening...

The National Weather Service in Raleigh has issued a heat
advisory, which is in effect from noon today to 6 PM EDT this
evening.

* Temperature... highs today will be in the mid 90s.

* Impacts... heat index values will approach or exceed 105 degrees
over portions of central North Carolina, including the Triangle
region and areas to the south and east.

Precautionary/preparedness actions...

Hot temperatures and high humidity will create a situation in
which heat illnesses are possible. Drink plenty of fluids, stay in
an air-conditioned room, stay out of the sun, and check up on
relatives and neighbors.

Cars can reach lethal temperatures in a matter of minutes in these
conditions. Never leave children or pets unattaended in a
vehicles, not even for a minute.